createdAt,value
2016-11-08T00:00:01.982Z,0
2016-11-08T00:01:01.668Z,0
2016-11-08T00:02:01.887Z,0
2016-11-08T00:03:01.544Z,0
2016-11-08T00:04:01.504Z,0
2016-11-08T00:05:01.155Z,0
2016-11-08T00:06:01.725Z,0
2016-11-08T00:07:01.675Z,0
2016-11-08T00:08:01.636Z,0
2016-11-08T00:09:01.295Z,0
2016-11-08T00:10:01.578Z,0
2016-11-08T00:11:01.209Z,0
2016-11-08T00:12:01.196Z,0
2016-11-08T00:13:01.423Z,0
2016-11-08T00:14:01.076Z,0
2016-11-08T00:15:01.039Z,0
2016-11-08T00:16:01.294Z,0
2016-11-08T00:17:00.650Z,0
2016-11-08T00:18:00.912Z,0
2016-11-08T00:19:00.871Z,0
2016-11-08T00:20:01.127Z,0
2016-11-08T00:21:00.778Z,0
2016-11-08T00:22:01.044Z,0
2016-11-08T00:23:00.700Z,0
2016-11-08T00:24:00.949Z,0
2016-11-08T00:25:00.911Z,0
2016-11-08T00:26:00.600Z,0
2016-11-08T00:27:00.524Z,0
2016-11-08T00:28:00.781Z,0
2016-11-08T00:29:00.738Z,0
2016-11-08T00:30:00.700Z,0
2016-11-08T00:31:00.693Z,0
2016-11-08T00:32:00.616Z,0
2016-11-08T00:33:00.574Z,0
2016-11-08T00:34:00.231Z,0
2016-11-08T00:35:00.223Z,0
2016-11-08T00:36:00.144Z,0
2016-11-08T00:37:00.404Z,0
2016-11-08T00:38:00.058Z,0
2016-11-08T00:39:00.021Z,0
2016-11-08T00:40:00.011Z,0
2016-11-08T00:41:00.233Z,0
2016-11-08T00:41:59.897Z,0
2016-11-08T00:43:00.143Z,0
2016-11-08T00:43:59.805Z,0
2016-11-08T00:45:00.066Z,0
2016-11-08T00:45:59.720Z,0
2016-11-08T00:46:59.977Z,0
2016-11-08T00:47:59.631Z,0
2016-11-08T00:48:59.590Z,0
2016-11-08T00:49:59.556Z,0
2016-11-08T00:50:59.509Z,0
2016-11-08T00:51:59.776Z,0
2016-11-08T00:52:59.730Z,0
2016-11-08T00:53:59.385Z,0
2016-11-08T00:54:59.644Z,0
2016-11-08T00:55:59.297Z,0
2016-11-08T00:56:59.551Z,0
2016-11-08T00:57:58.907Z,0
2016-11-08T00:58:59.472Z,0
2016-11-08T00:59:59.137Z,0
2016-11-08T01:00:59.386Z,0
2016-11-08T01:01:59.349Z,0
2016-11-08T01:02:58.996Z,0
2016-11-08T01:03:58.966Z,0
2016-11-08T01:04:58.961Z,0
2016-11-08T01:05:59.175Z,0
2016-11-08T01:06:59.131Z,0
2016-11-08T01:07:59.089Z,0
2016-11-08T01:08:59.048Z,0
2016-11-08T01:09:59.006Z,0
2016-11-08T01:10:59.001Z,0
2016-11-08T01:11:58.622Z,0
2016-11-08T01:12:58.876Z,0
2016-11-08T01:13:58.835Z,0
2016-11-08T01:14:58.190Z,0
2016-11-08T01:15:58.449Z,0
2016-11-08T01:16:58.109Z,0
2016-11-08T01:17:58.059Z,0
2016-11-08T01:18:58.326Z,0
2016-11-08T01:19:58.281Z,0
2016-11-08T01:20:58.540Z,0
2016-11-08T01:21:58.203Z,0
2016-11-08T01:22:58.163Z,0
2016-11-08T01:23:58.410Z,0
2016-11-08T01:24:58.070Z,0
2016-11-08T01:25:58.327Z,0
2016-11-08T01:26:58.284Z,0
2016-11-08T01:27:58.243Z,0
2016-11-08T01:28:57.897Z,0
2016-11-08T01:29:58.155Z,0
2016-11-08T01:30:58.113Z,0
2016-11-08T01:31:58.074Z,0
2016-11-08T01:32:58.030Z,0
2016-11-08T01:33:57.986Z,0
2016-11-08T01:34:57.674Z,0
2016-11-08T01:35:57.601Z,0
2016-11-08T01:36:57.259Z,0
2016-11-08T01:37:57.817Z,0
2016-11-08T01:38:57.475Z,0
2016-11-08T01:39:56.828Z,0
2016-11-08T01:40:57.691Z,0
2016-11-08T01:41:57.647Z,0
2016-11-08T01:42:57.310Z,0
2016-11-08T01:43:57.565Z,0
2016-11-08T01:44:57.216Z,0
2016-11-08T01:45:57.174Z,0
2016-11-08T01:46:57.433Z,0
2016-11-08T01:47:57.392Z,0
2016-11-08T01:48:57.348Z,0
2016-11-08T01:49:57.307Z,0
2016-11-08T01:50:56.966Z,0
2016-11-08T01:51:57.218Z,0
2016-11-08T01:52:56.880Z,0
2016-11-08T01:53:56.832Z,0
2016-11-08T01:54:56.491Z,0
2016-11-08T01:55:56.750Z,0
2016-11-08T01:56:56.709Z,0
2016-11-08T01:57:56.666Z,0
2016-11-08T01:58:56.926Z,0
2016-11-08T01:59:56.885Z,0
2016-11-08T02:00:56.836Z,0
2016-11-08T02:01:56.795Z,0
2016-11-08T02:02:56.769Z,0
2016-11-08T02:03:56.746Z,0
2016-11-08T02:04:56.668Z,0
2016-11-08T02:05:56.624Z,0
2016-11-08T02:06:56.279Z,0
2016-11-08T02:07:55.936Z,0
2016-11-08T02:08:56.499Z,0
2016-11-08T02:09:56.188Z,0
2016-11-08T02:10:56.416Z,0
2016-11-08T02:11:56.365Z,0
2016-11-08T02:12:56.329Z,0
2016-11-08T02:13:55.985Z,0
2016-11-08T02:14:56.244Z,0
2016-11-08T02:15:56.197Z,0
2016-11-08T02:16:55.854Z,0
2016-11-08T02:17:55.810Z,0
2016-11-08T02:18:56.071Z,0
2016-11-08T02:19:56.028Z,0
2016-11-08T02:20:55.985Z,0
2016-11-08T02:21:55.942Z,0
2016-11-08T02:22:55.923Z,0
2016-11-08T02:23:55.886Z,0
2016-11-08T02:24:55.515Z,0
2016-11-08T02:25:55.173Z,0
2016-11-08T02:26:55.428Z,0
2016-11-08T02:27:55.391Z,0
2016-11-08T02:28:55.353Z,0
2016-11-08T02:29:55.605Z,0
2016-11-08T02:30:55.557Z,0
2016-11-08T02:31:55.216Z,0
2016-11-08T02:32:55.169Z,0
2016-11-08T02:33:55.434Z,0
2016-11-08T02:34:55.088Z,0
2016-11-08T02:35:55.343Z,0
2016-11-08T02:36:55.302Z,0
2016-11-08T02:37:55.256Z,0
2016-11-08T02:38:54.917Z,0
2016-11-08T02:39:54.869Z,0
2016-11-08T02:40:55.133Z,0
2016-11-08T02:41:55.128Z,0
2016-11-08T02:42:54.741Z,0
2016-11-08T02:43:55.002Z,0
2016-11-08T02:44:54.658Z,0
2016-11-08T02:45:54.311Z,0
2016-11-08T02:46:54.868Z,0
2016-11-08T02:47:54.525Z,0
2016-11-08T02:48:54.482Z,0
2016-11-08T02:49:54.786Z,0
2016-11-08T02:50:54.804Z,0
2016-11-08T02:51:54.657Z,0
2016-11-08T02:52:54.316Z,0
2016-11-08T02:53:54.579Z,0
2016-11-08T02:54:54.533Z,0
2016-11-08T02:55:54.193Z,0
2016-11-08T02:56:54.446Z,0
2016-11-08T02:57:53.801Z,0
2016-11-08T02:58:54.055Z,0
2016-11-08T02:59:54.314Z,0
2016-11-08T03:00:53.967Z,0
2016-11-08T03:01:54.226Z,0
2016-11-08T03:02:54.186Z,0
2016-11-08T03:03:53.842Z,0
2016-11-08T03:04:54.100Z,0
2016-11-08T03:05:54.058Z,0
2016-11-08T03:06:53.712Z,0
2016-11-08T03:07:53.068Z,0
2016-11-08T03:08:53.930Z,0
2016-11-08T03:09:53.585Z,0
2016-11-08T03:10:53.842Z,0
2016-11-08T03:11:53.498Z,0
2016-11-08T03:12:53.760Z,0
2016-11-08T03:13:53.412Z,0
2016-11-08T03:14:53.068Z,0
2016-11-08T03:15:53.631Z,0
2016-11-08T03:16:52.985Z,0
2016-11-08T03:17:53.244Z,0
2016-11-08T03:18:53.201Z,0
2016-11-08T03:19:53.496Z,0
2016-11-08T03:20:53.109Z,0
2016-11-08T03:21:53.375Z,0
2016-11-08T03:22:53.029Z,0
2016-11-08T03:23:53.284Z,0
2016-11-08T03:24:53.242Z,0
2016-11-08T03:25:52.901Z,0
2016-11-08T03:26:52.861Z,0
2016-11-08T03:27:52.810Z,0
2016-11-08T03:28:52.771Z,0
2016-11-08T03:29:52.728Z,0
2016-11-08T03:30:52.683Z,0
2016-11-08T03:31:52.642Z,0
2016-11-08T03:32:52.295Z,0
2016-11-08T03:33:52.555Z,0
2016-11-08T03:34:52.510Z,0
2016-11-08T03:35:52.176Z,0
2016-11-08T03:36:52.732Z,0
2016-11-08T03:37:52.384Z,0
2016-11-08T03:38:52.044Z,0
2016-11-08T03:39:52.000Z,0
2016-11-08T03:40:52.258Z,0
2016-11-08T03:41:52.520Z,0
2016-11-08T03:42:52.475Z,0
2016-11-08T03:43:52.474Z,0
2016-11-08T03:44:52.127Z,0
2016-11-08T03:45:51.742Z,0
2016-11-08T03:46:52.313Z,0
2016-11-08T03:47:52.264Z,0
2016-11-08T03:48:52.219Z,0
2016-11-08T03:49:51.880Z,0
2016-11-08T03:50:51.836Z,0
2016-11-08T03:51:51.486Z,0
2016-11-08T03:52:52.048Z,0
2016-11-08T03:53:51.743Z,0
2016-11-08T03:54:51.963Z,0
2016-11-08T03:55:51.617Z,0
2016-11-08T03:56:51.877Z,0
2016-11-08T03:57:51.540Z,0
2016-11-08T03:58:51.490Z,0
2016-11-08T03:59:51.451Z,0
2016-11-08T04:00:51.712Z,0
2016-11-08T04:01:51.672Z,0
2016-11-08T04:02:51.024Z,0
2016-11-08T04:03:51.285Z,0
2016-11-08T04:04:50.939Z,0
2016-11-08T04:05:51.508Z,0
2016-11-08T04:06:51.151Z,0
2016-11-08T04:07:50.811Z,0
2016-11-08T04:08:51.372Z,0
2016-11-08T04:09:51.027Z,0
2016-11-08T04:10:50.986Z,0
2016-11-08T04:11:51.249Z,0
2016-11-08T04:12:50.599Z,0
2016-11-08T04:13:51.158Z,0
2016-11-08T04:14:50.517Z,0
2016-11-08T04:15:50.771Z,0
2016-11-08T04:16:50.732Z,0
2016-11-08T04:17:50.995Z,0
2016-11-08T04:18:50.341Z,0
2016-11-08T04:19:50.907Z,0
2016-11-08T04:20:50.563Z,0
2016-11-08T04:21:50.852Z,0
2016-11-08T04:22:50.779Z,0
2016-11-08T04:23:50.732Z,0
2016-11-08T04:24:50.696Z,0
2016-11-08T04:25:50.690Z,0
2016-11-08T04:26:50.305Z,0
2016-11-08T04:27:50.266Z,0
2016-11-08T04:28:50.525Z,0
2016-11-08T04:29:50.484Z,0
2016-11-08T04:30:50.444Z,0
2016-11-08T04:31:50.405Z,0
2016-11-08T04:32:50.058Z,0
2016-11-08T04:33:50.015Z,0
2016-11-08T04:34:50.009Z,0
2016-11-08T04:35:49.928Z,0
2016-11-08T04:36:50.187Z,0
2016-11-08T04:37:49.842Z,0
2016-11-08T04:38:50.115Z,0
2016-11-08T04:39:50.061Z,0
2016-11-08T04:40:50.050Z,0
2016-11-08T04:41:49.978Z,0
2016-11-08T04:42:49.935Z,0
2016-11-08T04:43:49.598Z,0
2016-11-08T04:44:49.851Z,0
2016-11-08T04:45:49.820Z,0
2016-11-08T04:46:49.775Z,0
2016-11-08T04:47:49.424Z,0
2016-11-08T04:48:49.684Z,0
2016-11-08T04:49:49.337Z,0
2016-11-08T04:50:49.599Z,0
2016-11-08T04:51:49.565Z,0
2016-11-08T04:52:49.212Z,0
2016-11-08T04:53:49.175Z,0
2016-11-08T04:54:49.428Z,0
2016-11-08T04:55:49.088Z,0
2016-11-08T04:56:49.351Z,0
2016-11-08T04:57:49.308Z,0
2016-11-08T04:58:49.263Z,0
2016-11-08T04:59:49.222Z,0
2016-11-08T05:00:49.175Z,0
2016-11-08T05:01:48.837Z,0
2016-11-08T05:02:49.092Z,0
2016-11-08T05:03:48.749Z,0
2016-11-08T05:04:48.405Z,0
2016-11-08T05:05:48.705Z,0
2016-11-08T05:06:48.621Z,0
2016-11-08T05:07:48.282Z,0
2016-11-08T05:08:48.842Z,0
2016-11-08T05:09:48.796Z,0
2016-11-08T05:10:48.157Z,0
2016-11-08T05:11:48.755Z,0
2016-11-08T05:12:48.674Z,0
2016-11-08T05:13:48.025Z,0
2016-11-08T05:14:48.603Z,0
2016-11-08T05:15:48.549Z,0
2016-11-08T05:16:48.506Z,0
2016-11-08T05:17:48.466Z,0
2016-11-08T05:18:47.820Z,0
2016-11-08T05:19:47.782Z,0
2016-11-08T05:20:48.380Z,0
2016-11-08T05:21:48.297Z,0
2016-11-08T05:22:47.958Z,0
2016-11-08T05:23:47.916Z,0
2016-11-08T05:24:47.868Z,0
2016-11-08T05:25:47.833Z,0
2016-11-08T05:26:47.485Z,0
2016-11-08T05:27:48.045Z,0
2016-11-08T05:28:48.008Z,0
2016-11-08T05:29:47.967Z,0
2016-11-08T05:30:47.922Z,0
2016-11-08T05:31:47.882Z,0
2016-11-08T05:32:47.845Z,0
2016-11-08T05:33:47.798Z,0
2016-11-08T05:34:47.756Z,0
2016-11-08T05:35:47.711Z,0
2016-11-08T05:36:47.676Z,0
2016-11-08T05:37:47.328Z,0
2016-11-08T05:38:47.285Z,0
2016-11-08T05:39:47.544Z,0
2016-11-08T05:40:47.204Z,0
2016-11-08T05:41:47.183Z,0
2016-11-08T05:42:47.423Z,0
2016-11-08T05:43:46.813Z,0
2016-11-08T05:44:47.369Z,0
2016-11-08T05:45:47.020Z,0
2016-11-08T05:46:47.262Z,0
2016-11-08T05:47:47.215Z,0
2016-11-08T05:48:46.903Z,0
2016-11-08T05:49:46.522Z,0
2016-11-08T05:50:47.086Z,0
2016-11-08T05:51:47.043Z,4
2016-11-08T05:52:46.703Z,4
2016-11-08T05:53:46.351Z,4
2016-11-08T05:54:46.919Z,4
2016-11-08T05:55:46.575Z,4
2016-11-08T05:56:46.832Z,8
2016-11-08T05:57:46.491Z,4
2016-11-08T05:58:46.451Z,8
2016-11-08T05:59:46.716Z,12
2016-11-08T06:00:45.759Z,12
2016-11-08T06:01:46.022Z,16
2016-11-08T06:02:45.981Z,20
2016-11-08T06:03:46.543Z,24
2016-11-08T06:04:46.533Z,24
2016-11-08T06:05:46.160Z,28
2016-11-08T06:06:46.108Z,36
2016-11-08T06:07:46.375Z,40
2016-11-08T06:08:46.029Z,48
2016-11-08T06:09:45.987Z,48
2016-11-08T06:10:45.954Z,56
2016-11-08T06:11:46.216Z,64
2016-11-08T06:12:45.858Z,76
2016-11-08T06:13:45.824Z,88
2016-11-08T06:14:46.082Z,96
2016-11-08T06:15:45.437Z,104
2016-11-08T06:16:46.000Z,108
2016-11-08T06:17:45.958Z,120
2016-11-08T06:18:45.953Z,128
2016-11-08T06:19:45.877Z,136
2016-11-08T06:20:45.844Z,152
2016-11-08T06:21:45.790Z,164
2016-11-08T06:22:45.755Z,172
2016-11-08T06:23:45.429Z,172
2016-11-08T06:24:45.664Z,180
2016-11-08T06:25:45.330Z,188
2016-11-08T06:26:45.285Z,200
2016-11-08T06:27:45.543Z,208
2016-11-08T06:28:45.497Z,216
2016-11-08T06:29:44.853Z,232
2016-11-08T06:30:45.156Z,252
2016-11-08T06:31:45.371Z,276
2016-11-08T06:32:45.329Z,312
2016-11-08T06:33:44.993Z,348
2016-11-08T06:34:44.647Z,384
2016-11-08T06:35:45.215Z,404
2016-11-08T06:36:45.163Z,416
2016-11-08T06:37:45.123Z,420
2016-11-08T06:38:45.080Z,432
2016-11-08T06:39:45.043Z,456
2016-11-08T06:40:45.009Z,488
2016-11-08T06:41:44.960Z,512
2016-11-08T06:42:44.914Z,556
2016-11-08T06:43:44.572Z,588
2016-11-08T06:44:44.830Z,588
2016-11-08T06:45:44.496Z,600
2016-11-08T06:46:44.459Z,636
2016-11-08T06:47:44.704Z,644
2016-11-08T06:48:44.664Z,648
2016-11-08T06:49:44.328Z,664
2016-11-08T06:50:44.582Z,692
2016-11-08T06:51:43.934Z,736
2016-11-08T06:52:44.201Z,804
2016-11-08T06:53:44.460Z,884
2016-11-08T06:54:44.420Z,880
2016-11-08T06:55:44.372Z,872
2016-11-08T06:56:43.731Z,872
2016-11-08T06:57:44.011Z,888
2016-11-08T06:58:43.953Z,936
2016-11-08T06:59:44.210Z,988
2016-11-08T07:00:43.876Z,1004
2016-11-08T07:01:44.144Z,1016
2016-11-08T07:02:43.521Z,1032
2016-11-08T07:03:44.049Z,1060
2016-11-08T07:04:44.002Z,1136
2016-11-08T07:05:43.659Z,1264
2016-11-08T07:06:43.619Z,1364
2016-11-08T07:07:43.584Z,1332
2016-11-08T07:08:43.843Z,1352
2016-11-08T07:09:43.795Z,1440
2016-11-08T07:10:43.759Z,1556
2016-11-08T07:11:43.410Z,1708
2016-11-08T07:12:43.369Z,1736
2016-11-08T07:13:43.026Z,1696
2016-11-08T07:14:43.592Z,1636
2016-11-08T07:15:43.547Z,1584
2016-11-08T07:16:43.544Z,1588
2016-11-08T07:17:43.466Z,1656
2016-11-08T07:18:42.821Z,1724
2016-11-08T07:19:43.386Z,1808
2016-11-08T07:20:43.346Z,1880
2016-11-08T07:21:42.699Z,1976
2016-11-08T07:22:43.263Z,2080
2016-11-08T07:23:43.215Z,2092
2016-11-08T07:24:42.875Z,2064
2016-11-08T07:25:43.132Z,2104
2016-11-08T07:26:43.095Z,2144
2016-11-08T07:27:43.050Z,2256
2016-11-08T07:28:43.012Z,2380
2016-11-08T07:29:42.670Z,2316
2016-11-08T07:30:42.930Z,2276
2016-11-08T07:31:42.586Z,2352
2016-11-08T07:32:42.550Z,2376
2016-11-08T07:33:42.805Z,2264
2016-11-08T07:34:42.461Z,2156
2016-11-08T07:35:42.429Z,2044
2016-11-08T07:36:42.688Z,1884
2016-11-08T07:37:42.354Z,1836
2016-11-08T07:38:42.297Z,1920
2016-11-08T07:39:42.565Z,1956
2016-11-08T07:40:42.512Z,2036
2016-11-08T07:41:42.171Z,1960
2016-11-08T07:42:41.832Z,1776
2016-11-08T07:43:42.094Z,1788
2016-11-08T07:44:42.350Z,2060
2016-11-08T07:45:42.012Z,2360
2016-11-08T07:46:41.967Z,2488
2016-11-08T07:47:42.228Z,2652
2016-11-08T07:48:41.903Z,2980
2016-11-08T07:49:41.887Z,2996
2016-11-08T07:50:42.113Z,2840
2016-11-08T07:51:42.063Z,2752
2016-11-08T07:52:41.743Z,2668
2016-11-08T07:53:41.980Z,2548
2016-11-08T07:54:41.638Z,2696
2016-11-08T07:55:41.598Z,3052
2016-11-08T07:56:41.585Z,3264
2016-11-08T07:57:41.828Z,3344
2016-11-08T07:58:41.514Z,3360
2016-11-08T07:59:41.733Z,3212
2016-11-08T08:00:41.391Z,3080
2016-11-08T08:01:41.055Z,3060
2016-11-08T08:02:41.613Z,3044
2016-11-08T08:03:41.269Z,3056
2016-11-08T08:04:41.234Z,2980
2016-11-08T08:05:41.186Z,2912
2016-11-08T08:06:41.448Z,2960
2016-11-08T08:07:41.141Z,3116
2016-11-08T08:08:41.378Z,3192
2016-11-08T08:09:41.027Z,3320
2016-11-08T08:10:40.988Z,3536
2016-11-08T08:11:40.644Z,4012
2016-11-08T08:12:40.907Z,4580
2016-11-08T08:13:40.557Z,4816
2016-11-08T08:14:41.129Z,4768
2016-11-08T08:15:40.781Z,4704
2016-11-08T08:16:40.745Z,4500
2016-11-08T08:17:41.007Z,4184
2016-11-08T08:18:40.655Z,4044
2016-11-08T08:19:40.921Z,3888
2016-11-08T08:20:40.878Z,3784
2016-11-08T08:21:40.843Z,3524
2016-11-08T08:22:40.198Z,3184
2016-11-08T08:23:40.754Z,2832
2016-11-08T08:24:40.409Z,2600
2016-11-08T08:25:40.377Z,2356
2016-11-08T08:26:40.640Z,2080
2016-11-08T08:27:40.594Z,1888
2016-11-08T08:28:40.555Z,1928
2016-11-08T08:29:40.262Z,2164
2016-11-08T08:30:40.479Z,2340
2016-11-08T08:31:40.131Z,2544
2016-11-08T08:32:40.128Z,3052
2016-11-08T08:33:40.356Z,3804
2016-11-08T08:34:40.006Z,3948
2016-11-08T08:35:40.269Z,4092
2016-11-08T08:36:39.927Z,4532
2016-11-08T08:37:39.885Z,5228
2016-11-08T08:38:39.544Z,5428
2016-11-08T08:39:40.110Z,5704
2016-11-08T08:40:40.071Z,5720
2016-11-08T08:41:39.435Z,4792
2016-11-08T08:42:39.987Z,4612
2016-11-08T08:43:39.680Z,5492
2016-11-08T08:44:39.646Z,6068
2016-11-08T08:45:39.876Z,6592
2016-11-08T08:46:39.819Z,7328
2016-11-08T08:47:39.785Z,8180
2016-11-08T08:48:39.440Z,8576
2016-11-08T08:49:39.403Z,8376
2016-11-08T08:50:39.362Z,8384
2016-11-08T08:51:39.015Z,7736
2016-11-08T08:52:39.287Z,6984
2016-11-08T08:53:39.547Z,6320
2016-11-08T08:54:39.202Z,7116
2016-11-08T08:55:39.160Z,7672
2016-11-08T08:56:39.120Z,7704
2016-11-08T08:57:39.077Z,6760
2016-11-08T08:58:39.344Z,5880
2016-11-08T08:59:39.303Z,5376
2016-11-08T09:00:38.968Z,4956
2016-11-08T09:01:39.226Z,4712
2016-11-08T09:02:38.881Z,4536
2016-11-08T09:03:39.146Z,4364
2016-11-08T09:04:39.101Z,4236
2016-11-08T09:05:39.060Z,4524
2016-11-08T09:06:39.020Z,4884
2016-11-08T09:07:38.980Z,4908
2016-11-08T09:08:38.636Z,5972
2016-11-08T09:09:38.601Z,5744
2016-11-08T09:10:38.556Z,5268
2016-11-08T09:11:38.822Z,5940
2016-11-08T09:12:38.178Z,6036
2016-11-08T09:13:38.440Z,5992
2016-11-08T09:14:38.701Z,8224
2016-11-08T09:15:38.360Z,8076
2016-11-08T09:16:38.011Z,8320
2016-11-08T09:17:37.978Z,8412
2016-11-08T09:18:38.546Z,7004
2016-11-08T09:19:37.898Z,7992
2016-11-08T09:20:38.159Z,7872
2016-11-08T09:21:38.422Z,7464
2016-11-08T09:22:38.082Z,6988
2016-11-08T09:23:38.341Z,7528
2016-11-08T09:24:37.998Z,11020
2016-11-08T09:25:37.963Z,14004
2016-11-08T09:26:37.923Z,15172
2016-11-08T09:27:38.186Z,12868
2016-11-08T09:28:37.856Z,18496
2016-11-08T09:29:38.102Z,13456
2016-11-08T09:30:38.063Z,12904
2016-11-08T09:31:38.022Z,13932
2016-11-08T09:32:37.684Z,14072
2016-11-08T09:33:37.650Z,12268
2016-11-08T09:34:37.604Z,10788
2016-11-08T09:35:37.867Z,9564
2016-11-08T09:36:37.529Z,9472
2016-11-08T09:37:37.793Z,10112
2016-11-08T09:38:37.149Z,14592
2016-11-08T09:39:37.712Z,10152
2016-11-08T09:40:37.674Z,10996
2016-11-08T09:41:37.637Z,11456
2016-11-08T09:42:37.640Z,10540
2016-11-08T09:43:37.256Z,8960
2016-11-08T09:44:37.257Z,8600
2016-11-08T09:45:37.485Z,8420
2016-11-08T09:46:36.837Z,8348
2016-11-08T09:47:37.110Z,9176
2016-11-08T09:48:37.361Z,9024
2016-11-08T09:49:37.324Z,9076
2016-11-08T09:50:37.303Z,8956
2016-11-08T09:51:37.249Z,9832
2016-11-08T09:52:36.908Z,9684
2016-11-08T09:53:37.099Z,10048
2016-11-08T09:54:36.833Z,9520
2016-11-08T09:55:36.490Z,9484
2016-11-08T09:56:37.066Z,11204
2016-11-08T09:57:37.018Z,10448
2016-11-08T09:58:36.677Z,11040
2016-11-08T09:59:36.641Z,10064
2016-11-08T10:00:36.601Z,10488
2016-11-08T10:01:36.865Z,11652
2016-11-08T10:02:36.218Z,12196
2016-11-08T10:03:36.789Z,11772
2016-11-08T10:04:36.480Z,12136
2016-11-08T10:05:36.411Z,11224
2016-11-08T10:06:36.675Z,10516
2016-11-08T10:07:36.335Z,9400
2016-11-08T10:08:36.334Z,8076
2016-11-08T10:09:36.553Z,7536
2016-11-08T10:10:36.522Z,7476
2016-11-08T10:11:36.188Z,8112
2016-11-08T10:12:36.176Z,8672
2016-11-08T10:13:36.105Z,9624
2016-11-08T10:14:36.061Z,10100
2016-11-08T10:15:35.723Z,10508
2016-11-08T10:16:36.289Z,10424
2016-11-08T10:17:35.951Z,10596
2016-11-08T10:18:36.212Z,10748
2016-11-08T10:19:35.874Z,10468
2016-11-08T10:20:36.145Z,9880
2016-11-08T10:21:36.127Z,9268
2016-11-08T10:22:35.755Z,8748
2016-11-08T10:23:35.719Z,8144
2016-11-08T10:24:35.686Z,7824
2016-11-08T10:25:35.953Z,8000
2016-11-08T10:26:35.902Z,8716
2016-11-08T10:27:35.908Z,10056
2016-11-08T10:28:35.825Z,11032
2016-11-08T10:29:35.792Z,11116
2016-11-08T10:30:35.448Z,10704
2016-11-08T10:31:35.715Z,10068
2016-11-08T10:32:35.683Z,9880
2016-11-08T10:33:35.336Z,9416
2016-11-08T10:34:35.632Z,8444
2016-11-08T10:35:35.261Z,7560
2016-11-08T10:36:35.532Z,7404
2016-11-08T10:37:35.487Z,7756
2016-11-08T10:38:35.443Z,7712
2016-11-08T10:39:35.410Z,7796
2016-11-08T10:40:35.069Z,8292
2016-11-08T10:41:35.332Z,8428
2016-11-08T10:42:34.989Z,7884
2016-11-08T10:43:34.952Z,8072
2016-11-08T10:44:35.214Z,7624
2016-11-08T10:45:35.176Z,7524
2016-11-08T10:46:34.836Z,7624
2016-11-08T10:47:34.809Z,7908
2016-11-08T10:48:35.065Z,9728
2016-11-08T10:49:35.020Z,9228
2016-11-08T10:50:34.680Z,9436
2016-11-08T10:51:34.645Z,9952
2016-11-08T10:52:34.903Z,10460
2016-11-08T10:53:34.566Z,10572
2016-11-08T10:54:34.833Z,10896
2016-11-08T10:55:34.791Z,11396
2016-11-08T10:56:34.783Z,13096
2016-11-08T10:57:34.412Z,21344
2016-11-08T10:58:34.677Z,25248
2016-11-08T10:59:34.640Z,27904
2016-11-08T11:00:34.600Z,30464
2016-11-08T11:01:34.342Z,31296
2016-11-08T11:02:34.223Z,29440
2016-11-08T11:03:34.192Z,28480
2016-11-08T11:04:34.154Z,27360
2016-11-08T11:05:34.111Z,27136
2016-11-08T11:06:34.077Z,26752
2016-11-08T11:07:34.042Z,24320
2016-11-08T11:08:34.313Z,21024
2016-11-08T11:09:33.975Z,16832
2016-11-08T11:10:33.939Z,17856
2016-11-08T11:11:33.904Z,17568
2016-11-08T11:12:33.866Z,16336
2016-11-08T11:13:34.131Z,15136
2016-11-08T11:14:33.497Z,14412
2016-11-08T11:15:34.073Z,12924
2016-11-08T11:16:33.426Z,12852
2016-11-08T11:17:33.996Z,14468
2016-11-08T11:18:33.663Z,15348
2016-11-08T11:19:33.931Z,14744
2016-11-08T11:20:33.598Z,15056
2016-11-08T11:21:33.868Z,23232
2016-11-08T11:22:33.831Z,22272
2016-11-08T11:23:33.793Z,21984
2016-11-08T11:24:33.464Z,21280
2016-11-08T11:25:33.725Z,20928
2016-11-08T11:26:33.687Z,18464
2016-11-08T11:27:33.353Z,16072
2016-11-08T11:28:33.629Z,15532
2016-11-08T11:29:33.284Z,13676
2016-11-08T11:30:32.956Z,12844
2016-11-08T11:31:33.519Z,12440
2016-11-08T11:32:33.181Z,11728
2016-11-08T11:33:32.845Z,11244
2016-11-08T11:34:33.450Z,11020
2016-11-08T11:35:32.782Z,11296
2016-11-08T11:36:32.735Z,12344
2016-11-08T11:37:33.318Z,12616
2016-11-08T11:38:32.672Z,12548
2016-11-08T11:39:33.254Z,12252
2016-11-08T11:40:33.207Z,11732
2016-11-08T11:41:32.569Z,11756
2016-11-08T11:42:33.139Z,11432
2016-11-08T11:43:33.102Z,11332
2016-11-08T11:44:33.068Z,11304
2016-11-08T11:45:33.035Z,10852
2016-11-08T11:46:32.999Z,11536
2016-11-08T11:47:32.677Z,11476
2016-11-08T11:48:32.927Z,10364
2016-11-08T11:49:32.598Z,10088
2016-11-08T11:50:32.862Z,10264
2016-11-08T11:51:32.519Z,10736
2016-11-08T11:52:32.480Z,11216
2016-11-08T11:53:32.479Z,11548
2016-11-08T11:54:32.754Z,11840
2016-11-08T11:55:32.384Z,11872
2016-11-08T11:56:32.347Z,11888
2016-11-08T11:57:32.305Z,11748
2016-11-08T11:58:32.277Z,11548
2016-11-08T11:59:32.233Z,11392
2016-11-08T12:00:32.504Z,11208
2016-11-08T12:01:32.466Z,11128
2016-11-08T12:02:32.430Z,11168
2016-11-08T12:03:32.385Z,11280
2016-11-08T12:04:32.350Z,11368
2016-11-08T12:05:32.018Z,11440
2016-11-08T12:06:32.315Z,11564
2016-11-08T12:07:31.940Z,11672
2016-11-08T12:08:32.212Z,11868
2016-11-08T12:09:32.189Z,12056
2016-11-08T12:10:32.134Z,12140
2016-11-08T12:11:31.800Z,12160
2016-11-08T12:12:31.764Z,12176
2016-11-08T12:13:32.024Z,12104
2016-11-08T12:14:31.685Z,11884
2016-11-08T12:15:31.646Z,11656
2016-11-08T12:16:31.313Z,11484
2016-11-08T12:17:31.882Z,11260
2016-11-08T12:18:31.850Z,11084
2016-11-08T12:19:31.508Z,11060
2016-11-08T12:20:31.776Z,11112
2016-11-08T12:21:31.436Z,11340
2016-11-08T12:22:31.711Z,11560
2016-11-08T12:23:31.365Z,11784
2016-11-08T12:24:31.624Z,12008
2016-11-08T12:25:31.286Z,12020
2016-11-08T12:26:31.249Z,12080
2016-11-08T12:27:30.918Z,12084
2016-11-08T12:28:30.876Z,12056
2016-11-08T12:29:31.436Z,12056
2016-11-08T12:30:31.106Z,11992
2016-11-08T12:31:31.379Z,11892
2016-11-08T12:32:31.023Z,11960
2016-11-08T12:33:31.288Z,12804
2016-11-08T12:34:30.971Z,13304
2016-11-08T12:35:30.921Z,13228
2016-11-08T12:36:31.188Z,13320
2016-11-08T12:37:31.146Z,13272
2016-11-08T12:38:31.116Z,12392
2016-11-08T12:39:30.785Z,11388
2016-11-08T12:40:30.734Z,10364
2016-11-08T12:41:30.999Z,9612
2016-11-08T12:42:30.965Z,9296
2016-11-08T12:43:30.929Z,9596
2016-11-08T12:44:30.891Z,9012
2016-11-08T12:45:30.858Z,9148
2016-11-08T12:46:30.817Z,9304
2016-11-08T12:47:30.478Z,8616
2016-11-08T12:48:30.791Z,7004
2016-11-08T12:49:30.403Z,6204
2016-11-08T12:50:30.403Z,5840
2016-11-08T12:51:30.642Z,5640
2016-11-08T12:52:30.296Z,5472
2016-11-08T12:53:30.261Z,5556
2016-11-08T12:54:30.223Z,5664
2016-11-08T12:55:30.486Z,5980
2016-11-08T12:56:30.148Z,6300
2016-11-08T12:57:30.413Z,5972
2016-11-08T12:58:30.362Z,5776
2016-11-08T12:59:30.034Z,6048
2016-11-08T13:00:29.998Z,6520
2016-11-08T13:01:29.971Z,6824
2016-11-08T13:02:30.234Z,6888
2016-11-08T13:03:30.199Z,6832
2016-11-08T13:04:29.853Z,7116
2016-11-08T13:05:29.818Z,7464
2016-11-08T13:06:29.785Z,7184
2016-11-08T13:07:29.740Z,7216
2016-11-08T13:08:30.003Z,7340
2016-11-08T13:09:29.965Z,7260
2016-11-08T13:10:29.929Z,6472
2016-11-08T13:11:29.894Z,5808
2016-11-08T13:12:29.250Z,5644
2016-11-08T13:13:29.820Z,5240
2016-11-08T13:14:29.484Z,4932
2016-11-08T13:15:29.440Z,4840
2016-11-08T13:16:29.705Z,4772
2016-11-08T13:17:29.370Z,4744
2016-11-08T13:18:29.627Z,4988
2016-11-08T13:19:29.593Z,5120
2016-11-08T13:20:29.248Z,5404
2016-11-08T13:21:29.520Z,5940
2016-11-08T13:22:29.485Z,6244
2016-11-08T13:23:29.139Z,6336
2016-11-08T13:24:29.095Z,6468
2016-11-08T13:25:29.365Z,6400
2016-11-08T13:26:29.327Z,6436
2016-11-08T13:27:29.296Z,6320
2016-11-08T13:28:29.251Z,6080
2016-11-08T13:29:28.917Z,5616
2016-11-08T13:30:28.870Z,5280
2016-11-08T13:31:28.835Z,5204
2016-11-08T13:32:29.098Z,5200
2016-11-08T13:33:29.102Z,5196
2016-11-08T13:34:29.024Z,5216
2016-11-08T13:35:28.686Z,5296
2016-11-08T13:36:28.980Z,5364
2016-11-08T13:37:28.911Z,5668
2016-11-08T13:38:28.869Z,5868
2016-11-08T13:39:28.531Z,5884
2016-11-08T13:40:28.487Z,5960
2016-11-08T13:41:28.756Z,5880
2016-11-08T13:42:28.411Z,5748
2016-11-08T13:43:28.381Z,5564
2016-11-08T13:44:28.334Z,5408
2016-11-08T13:45:28.607Z,5384
2016-11-08T13:46:28.258Z,5244
2016-11-08T13:47:27.923Z,4760
2016-11-08T13:48:28.487Z,4432
2016-11-08T13:49:28.143Z,4124
2016-11-08T13:50:28.413Z,3932
2016-11-08T13:51:28.075Z,3660